Аэропорт: Шереметьево. Москва

ICAO: UUEE

METAR:
2022-06-26 11:30:00
UUEE 261130Z 30003MPS CAVOK 30/13 Q1021 R24L/CLRD62 R24C/CLRD62 NOSIG
METAR:
2022-06-26 10:51:00
TAF UUEE 261051Z 2612/2712 32003G08MPS CAVOK TX31/2712Z TN19/2701Z TEMPO 2612/2615 36008G13MPS